Time;durP1;ratioP1;P1;durP2;ratioP2;P2;SDS_P1;SDS_P2;PMS_P1;PMS_P2;Temp;Humidity;BMP_temperature;BMP_pressure;BME280_temperature;BME280_humidity;BME280_pressure;Samples;Min_cycle;Max_cycle;Signal;HPM_P1;HPM_P2
2022/07/24 00:01:44;;;;;;;15.02;11.18;;;;;;;30.37;38.86;101971.69;5113026;28;20031;-77
2022/07/24 00:04:09;;;;;;;21.42;11.98;;;;;;;30.55;38.68;101967.59;5094112;28;20030;-77
2022/07/24 00:06:35;;;;;;;15.70;12.40;;;;;;;30.52;38.79;101962.44;5094604;28;20038;-77
2022/07/24 00:09:01;;;;;;;15.35;11.88;;;;;;;30.44;39.11;101967.56;5094723;28;20026;-77
2022/07/24 00:11:26;;;;;;;17.80;12.05;;;;;;;30.47;38.44;101967.31;5093651;28;20031;-77
2022/07/24 00:13:52;;;;;;;16.45;12.13;;;;;;;30.05;38.90;101962.38;5094705;28;20479;-77
2022/07/24 00:16:18;;;;;;;18.77;12.55;;;;;;;30.28;39.14;101967.84;5112652;28;20492;-77
2022/07/24 00:18:43;;;;;;;16.58;12.27;;;;;;;30.48;38.37;101955.56;5093560;28;20020;-77
2022/07/24 00:21:09;;;;;;;18.65;13.45;;;;;;;30.65;37.68;101950.69;5094308;28;20015;-77
2022/07/24 00:23:34;;;;;;;19.38;13.38;;;;;;;30.57;37.79;101952.16;5094320;28;20030;-77
2022/07/24 00:26:00;;;;;;;19.08;14.02;;;;;;;30.41;38.36;101951.59;5111489;28;20028;-77
2022/07/24 00:28:25;;;;;;;17.83;13.48;;;;;;;30.20;38.84;101943.31;5094582;28;20035;-77
2022/07/24 00:30:50;;;;;;;18.75;14.70;;;;;;;30.32;38.58;101946.91;5093609;28;20016;-77
2022/07/24 00:33:16;;;;;;;22.70;15.27;;;;;;;30.27;38.56;101948.13;5094301;28;20548;-76
2022/07/24 00:35:42;;;;;;;22.05;14.73;;;;;;;30.47;38.46;101953.84;5112360;28;20047;-77
2022/07/24 00:38:07;;;;;;;19.02;14.48;;;;;;;30.40;38.67;101957.97;5093555;28;20027;-78
2022/07/24 00:40:32;;;;;;;21.33;14.00;;;;;;;30.42;38.51;101959.56;5093996;28;20024;-76
2022/07/24 00:42:58;;;;;;;21.48;14.63;;;;;;;30.36;38.66;101961.88;5112319;28;20127;-77
2022/07/24 00:45:24;;;;;;;21.75;15.15;;;;;;;30.34;38.57;101955.75;5093333;28;20023;-77
2022/07/24 00:47:50;;;;;;;22.23;15.80;;;;;;;30.45;38.19;101961.22;5094463;28;20065;-77
2022/07/24 00:50:16;;;;;;;21.67;14.63;;;;;;;30.32;38.12;101963.09;5093938;28;20019;-78
2022/07/24 00:52:44;;;;;;;22.27;15.77;;;;;;;30.21;38.44;101956.69;5111655;28;20034;-77
2022/07/24 00:55:11;;;;;;;22.30;15.85;;;;;;;30.16;38.78;101958.00;5112128;28;20071;-77
2022/07/24 00:57:37;;;;;;;23.65;15.85;;;;;;;30.08;39.00;101950.50;5112259;28;20026;-77
2022/07/24 01:00:06;;;;;;;20.73;15.52;;;;;;;30.31;38.51;101958.66;5093127;28;20031;-77
2022/07/24 01:02:31;;;;;;;25.50;16.08;;;;;;;30.21;38.42;101945.91;5093992;28;20020;-77
2022/07/24 01:04:57;;;;;;;21.70;15.25;;;;;;;30.27;38.01;101945.44;5093675;28;20088;-77
2022/07/24 01:07:22;;;;;;;22.38;15.38;;;;;;;30.42;38.46;101953.31;5111409;28;20027;-77
2022/07/24 01:09:47;;;;;;;22.00;15.15;;;;;;;30.08;38.44;101945.13;5112050;28;20103;-77
2022/07/24 01:12:13;;;;;;;21.80;15.07;;;;;;;30.27;38.86;101949.97;5093895;28;20015;-77
2022/07/24 01:14:39;;;;;;;22.33;15.75;;;;;;;30.41;37.76;101944.34;5111702;28;20028;-77
2022/07/24 01:17:05;;;;;;;22.35;15.48;;;;;;;30.10;39.33;101943.16;5112067;28;20027;-77
2022/07/24 01:19:30;;;;;;;20.42;14.68;;;;;;;30.12;38.67;101935.81;5093696;28;20463;-77
2022/07/24 01:21:56;;;;;;;26.95;15.25;;;;;;;30.00;38.53;101934.91;5093396;28;20023;-77
2022/07/24 01:24:22;;;;;;;19.77;14.93;;;;;;;29.97;38.84;101937.00;5093550;28;20024;-77
2022/07/24 01:26:48;;;;;;;21.17;14.07;;;;;;;29.84;39.31;101937.00;5093892;28;20069;-76
2022/07/24 01:29:14;;;;;;;23.77;14.18;;;;;;;29.73;38.94;101940.50;5093051;28;20027;-77
2022/07/24 01:31:40;;;;;;;23.30;14.88;;;;;;;30.02;38.79;101924.00;5093704;28;20019;-77
2022/07/24 01:34:06;;;;;;;24.20;14.90;;;;;;;30.15;38.83;101924.78;5092849;28;20031;-76
2022/07/24 01:36:31;;;;;;;20.08;13.60;;;;;;;29.51;39.42;101931.34;5093721;28;20016;-77
2022/07/24 01:38:57;;;;;;;19.48;12.88;;;;;;;29.20;39.13;101933.50;5093723;28;20051;-77
2022/07/24 01:41:23;;;;;;;19.27;12.75;;;;;;;28.94;40.19;101932.69;5111321;28;20440;-77
2022/07/24 01:43:48;;;;;;;22.92;14.48;;;;;;;29.85;38.27;101933.38;5096152;28;20134;-77
2022/07/24 01:46:14;;;;;;;19.80;13.50;;;;;;;29.15;39.74;101930.28;5096807;28;20038;-77
2022/07/24 01:48:43;;;;;;;21.52;14.23;;;;;;;29.61;38.72;101935.06;5115026;28;20487;-77
2022/07/24 01:51:09;;;;;;;19.45;13.13;;;;;;;29.64;38.78;101933.13;5097227;28;20015;-77
2022/07/24 01:53:34;;;;;;;18.30;12.88;;;;;;;29.59;39.50;101928.94;5115500;28;20038;-77
2022/07/24 01:56:00;;;;;;;21.05;11.88;;;;;;;29.25;39.32;101926.00;5096338;28;20027;-77
2022/07/24 01:58:26;;;;;;;17.98;11.70;;;;;;;29.11;39.32;101920.72;5097033;28;20023;-77
2022/07/24 02:00:52;;;;;;;20.27;11.60;;;;;;;29.15;39.24;101924.91;5096834;28;20026;-77
2022/07/24 02:03:18;;;;;;;17.05;10.10;;;;;;;28.57;40.08;101928.03;5096178;28;20036;-77
2022/07/24 02:05:44;;;;;;;14.18;8.88;;;;;;;29.45;38.45;101921.84;5096709;28;20019;-77
2022/07/24 02:08:09;;;;;;;12.70;8.75;;;;;;;28.59;39.62;101920.72;5096450;28;20024;-77
2022/07/24 02:10:34;;;;;;;15.27;8.35;;;;;;;29.38;37.99;101920.59;5096197;28;20027;-77
2022/07/24 02:13:00;;;;;;;13.10;8.50;;;;;;;28.12;40.08;101913.25;5114995;28;20030;-77
2022/07/24 02:15:25;;;;;;;13.15;7.63;;;;;;;28.70;39.21;101913.75;5096624;28;20433;-77
2022/07/24 02:17:54;;;;;;;12.95;7.63;;;;;;;28.03;40.46;101915.59;5096012;28;20422;-77
2022/07/24 02:20:20;;;;;;;15.70;7.30;;;;;;;28.57;39.66;101919.97;5114694;28;20050;-77
2022/07/24 02:22:45;;;;;;;10.57;7.63;;;;;;;29.50;37.87;101918.84;5096310;28;20019;-77
2022/07/24 02:25:12;;;;;;;19.08;7.45;;;;;;;29.74;36.98;101912.59;5095653;28;20019;-77
2022/07/24 02:27:38;;;;;;;14.40;6.97;;;;;;;30.10;36.54;101900.91;5096291;28;20126;-77
2022/07/24 02:30:09;;;;;;;12.75;7.28;;;;;;;29.82;37.79;101907.47;5096366;28;20519;-77
2022/07/24 02:32:35;;;;;;;13.82;7.60;;;;;;;29.23;37.96;101900.13;5095174;28;20030;-77
2022/07/24 02:35:00;;;;;;;14.48;8.43;;;;;;;28.64;38.92;101901.59;5096214;28;20020;-76
2022/07/24 02:37:26;;;;;;;8.95;6.70;;;;;;;28.30;40.15;101900.38;5095365;28;20475;-77
2022/07/24 02:39:51;;;;;;;11.43;7.05;;;;;;;29.02;38.66;101899.88;5114500;28;20391;-77
2022/07/24 02:42:16;;;;;;;19.70;7.70;;;;;;;28.86;38.92;101898.25;5095742;28;20085;-77
2022/07/24 02:44:42;;;;;;;11.93;7.47;;;;;;;29.06;38.42;101901.38;5095476;28;20495;-77
2022/07/24 02:47:07;;;;;;;12.82;7.97;;;;;;;29.09;38.25;101893.06;5096047;28;20019;-77
2022/07/24 02:49:33;;;;;;;16.77;8.30;;;;;;;27.87;40.93;101893.38;5114182;28;20096;-77
2022/07/24 02:51:58;;;;;;;12.10;7.53;;;;;;;29.37;38.27;101896.47;5095222;28;20020;-77
2022/07/24 02:54:23;;;;;;;14.52;8.48;;;;;;;29.14;38.64;101890.03;5094598;28;20463;-77
2022/07/24 02:56:49;;;;;;;16.38;8.75;;;;;;;29.38;38.53;101890.13;5095678;28;20027;-77
2022/07/24 02:59:15;;;;;;;12.73;8.45;;;;;;;29.77;37.64;101883.59;5095098;28;20026;-76
2022/07/24 03:01:40;;;;;;;15.50;8.95;;;;;;;28.71;39.58;101888.59;5095629;28;20489;-77
2022/07/24 03:04:06;;;;;;;14.38;8.75;;;;;;;29.25;38.89;101891.00;5113927;28;20035;-77
2022/07/24 03:06:31;;;;;;;17.13;9.48;;;;;;;28.21;41.04;101881.22;5095097;28;20024;-77
2022/07/24 03:08:57;;;;;;;18.20;10.07;;;;;;;28.43;40.29;101882.44;5095729;28;20049;-77
2022/07/24 03:11:22;;;;;;;11.88;8.38;;;;;;;27.95;41.57;101868.69;5095550;28;20023;-77
2022/07/24 03:13:47;;;;;;;17.98;9.38;;;;;;;28.46;40.45;101868.78;5094986;28;20050;-77
2022/07/24 03:16:13;;;;;;;15.52;9.32;;;;;;;28.11;40.91;101874.78;5095320;28;20433;-77
2022/07/24 03:18:38;;;;;;;15.40;9.35;;;;;;;28.99;39.37;101859.72;5113737;28;20023;-76
2022/07/24 03:21:04;;;;;;;15.32;8.90;;;;;;;29.14;38.83;101864.00;5094880;28;20023;-76
2022/07/24 03:23:29;;;;;;;14.90;9.35;;;;;;;28.57;39.96;101858.13;5095326;28;20028;-77
2022/07/24 03:25:54;;;;;;;18.02;9.40;;;;;;;29.02;39.28;101865.75;5113271;28;20493;-76
2022/07/24 03:28:20;;;;;;;15.65;9.20;;;;;;;28.64;39.71;101857.72;5094826;28;20019;-77
2022/07/24 03:30:46;;;;;;;13.77;8.27;;;;;;;27.48;41.94;101860.13;5095100;28;20020;-77
2022/07/24 03:33:11;;;;;;;13.48;7.82;;;;;;;27.18;42.48;101863.84;5095007;28;20020;-77
2022/07/24 03:35:37;;;;;;;17.23;7.93;;;;;;;28.15;40.80;101856.59;5112625;28;20479;-77
2022/07/24 03:38:02;;;;;;;16.23;7.15;;;;;;;28.16;40.26;101850.25;5094885;28;20030;-76
2022/07/24 03:40:28;;;;;;;10.02;6.30;;;;;;;27.56;40.95;101858.69;5095005;28;20107;-77
2022/07/24 03:42:53;;;;;;;12.00;6.15;;;;;;;27.32;40.62;101852.19;5112450;28;20492;-77
2022/07/24 03:45:19;;;;;;;9.05;5.82;;;;;;;27.88;40.11;101852.97;5094690;28;20016;-77
2022/07/24 03:47:44;;;;;;;9.90;5.65;;;;;;;26.30;42.89;101867.44;5094367;28;20031;-77
2022/07/24 03:50:09;;;;;;;9.25;5.22;;;;;;;26.72;42.40;101872.94;5094886;28;20111;-77
2022/07/24 03:52:35;;;;;;;13.02;5.60;;;;;;;27.11;41.01;101866.03;5113181;28;20360;-78
2022/07/24 03:55:00;;;;;;;10.45;5.68;;;;;;;27.43;41.00;101860.44;5093995;28;20080;-77
2022/07/24 03:57:26;;;;;;;10.43;5.68;;;;;;;27.96;39.57;101867.69;5113224;28;20027;-77
2022/07/24 03:59:52;;;;;;;6.60;5.03;;;;;;;27.41;40.44;101867.75;5094867;28;20105;-77
2022/07/24 04:02:17;;;;;;;6.60;4.40;;;;;;;27.19;40.63;101882.50;5093889;28;20024;-78
2022/07/24 04:04:43;;;;;;;5.53;4.18;;;;;;;27.14;40.94;101879.25;5094916;28;20020;-77
2022/07/24 04:07:08;;;;;;;11.30;4.50;;;;;;;27.43;40.16;101871.19;5112962;28;20023;-78
2022/07/24 04:09:34;;;;;;;5.95;4.32;;;;;;;27.20;40.32;101873.50;5112447;28;20024;-77
2022/07/24 04:11:59;;;;;;;7.00;4.15;;;;;;;27.00;41.26;101876.59;5112977;28;20047;-77
2022/07/24 04:14:25;;;;;;;10.52;4.68;;;;;;;27.56;40.06;101869.41;5094912;28;20027;-78
2022/07/24 04:16:50;;;;;;;7.53;4.43;;;;;;;28.06;39.43;101853.56;5094285;28;20041;-77
2022/07/24 04:19:16;;;;;;;7.90;5.00;;;;;;;27.24;41.26;101858.06;5112942;28;20374;-77
2022/07/24 04:21:41;;;;;;;9.98;5.63;;;;;;;27.70;40.13;101859.59;5112943;28;20411;-77
2022/07/24 04:24:07;;;;;;;9.63;6.28;;;;;;;27.16;41.76;101860.38;5093783;28;20030;-78
2022/07/24 04:26:32;;;;;;;11.00;6.32;;;;;;;27.01;42.37;101867.56;5094875;28;20024;-78
2022/07/24 04:28:58;;;;;;;10.98;7.20;;;;;;;27.59;41.44;101858.47;5094814;28;20026;-78
2022/07/24 04:31:23;;;;;;;12.55;7.50;;;;;;;28.28;39.77;101852.09;5093998;28;20046;-78
2022/07/24 04:33:48;;;;;;;15.57;8.07;;;;;;;27.82;40.91;101850.72;5094402;28;20030;-78
2022/07/24 04:36:14;;;;;;;12.27;8.57;;;;;;;27.44;42.00;101854.13;5094663;28;20019;-78
2022/07/24 04:38:39;;;;;;;13.35;8.57;;;;;;;27.61;42.14;101849.47;5112093;28;20053;-78
2022/07/24 04:41:04;;;;;;;14.30;8.77;;;;;;;28.05;40.96;101854.53;5112881;28;20023;-77
2022/07/24 04:43:30;;;;;;;16.42;9.52;;;;;;;27.58;41.87;101861.25;5094153;28;20047;-78
2022/07/24 04:45:55;;;;;;;16.45;9.35;;;;;;;27.52;42.46;101854.47;5093742;28;20475;-77
2022/07/24 04:48:21;;;;;;;13.82;9.60;;;;;;;27.59;42.29;101869.22;5112621;28;20502;-77
2022/07/24 04:50:46;;;;;;;17.27;10.32;;;;;;;26.97;44.43;101876.78;5094417;28;20107;-77
2022/07/24 04:53:11;;;;;;;19.25;9.82;;;;;;;28.02;42.31;101875.38;5093353;28;20028;-77
2022/07/24 04:55:37;;;;;;;13.50;9.70;;;;;;;27.80;42.54;101871.44;5112956;28;20111;-78
2022/07/24 04:58:02;;;;;;;14.00;8.40;;;;;;;28.09;41.96;101871.31;5111781;28;20047;-78
2022/07/24 05:00:28;;;;;;;14.50;8.68;;;;;;;28.39;41.34;101867.47;5094511;28;20023;-77
2022/07/24 05:02:53;;;;;;;15.43;7.68;;;;;;;27.31;43.32;101874.63;5112078;28;20510;-77
2022/07/24 05:05:18;;;;;;;14.02;8.45;;;;;;;27.74;42.95;101858.41;5093802;28;20024;-77
2022/07/24 05:07:44;;;;;;;20.88;8.88;;;;;;;28.14;42.01;101868.31;5112286;28;20027;-78
2022/07/24 05:10:09;;;;;;;14.52;8.30;;;;;;;27.29;43.81;101871.19;5094653;28;20060;-78
2022/07/24 05:12:35;;;;;;;13.10;8.63;;;;;;;27.26;44.13;101883.00;5093835;28;20372;-78
2022/07/24 05:15:00;;;;;;;13.52;7.57;;;;;;;26.83;44.89;101875.84;5094243;28;20020;-79
2022/07/24 05:17:26;;;;;;;15.02;7.28;;;;;;;27.04;44.56;101878.13;5112665;28;20020;-78
2022/07/24 05:19:51;;;;;;;13.95;6.78;;;;;;;27.18;43.08;101879.94;5097733;28;20463;-78
2022/07/24 05:22:17;;;;;;;11.98;7.38;;;;;;;27.41;43.58;101881.16;5098004;28;20034;-78
2022/07/24 05:24:42;;;;;;;10.45;6.15;;;;;;;28.24;41.23;101875.63;5098004;28;20022;-77
2022/07/24 05:27:07;;;;;;;12.70;6.43;;;;;;;27.70;42.49;101881.06;5115512;28;20475;-78
2022/07/24 05:29:33;;;;;;;15.20;6.72;;;;;;;27.15;43.51;101878.31;5097509;28;20118;-78
2022/07/24 05:31:58;;;;;;;10.88;6.32;;;;;;;27.34;43.03;101887.84;5097888;28;20028;-78
2022/07/24 05:34:24;;;;;;;9.82;6.47;;;;;;;28.09;41.78;101882.06;5115392;28;20036;-78
2022/07/24 05:36:49;;;;;;;11.48;6.47;;;;;;;27.43;42.72;101895.34;5115866;28;20081;-77
2022/07/24 05:39:15;;;;;;;9.52;5.57;;;;;;;26.64;44.13;101907.38;5115937;28;20080;-77
2022/07/24 05:41:40;;;;;;;8.43;4.85;;;;;;;27.87;42.02;101899.59;5115258;28;20027;-77
2022/07/24 05:44:06;;;;;;;9.45;5.32;;;;;;;27.44;42.89;101915.84;5097870;28;20030;-78
2022/07/24 05:46:31;;;;;;;8.85;5.47;;;;;;;26.32;44.62;101905.69;5097547;28;20103;-78
2022/07/24 05:48:56;;;;;;;6.22;4.63;;;;;;;26.49;44.40;101910.06;5096859;28;20042;-78
2022/07/24 05:51:22;;;;;;;6.75;4.00;;;;;;;27.23;41.91;101899.25;5097644;28;20239;-78
2022/07/24 05:53:48;;;;;;;7.32;4.30;;;;;;;28.58;39.68;101894.81;5115562;28;20047;-77
2022/07/24 05:56:13;;;;;;;6.07;3.50;;;;;;;28.32;40.12;101888.56;5114885;28;20045;-78
2022/07/24 05:58:38;;;;;;;7.60;3.92;;;;;;;28.78;39.23;101884.50;5097192;28;20540;-78
2022/07/24 06:01:04;;;;;;;4.85;3.67;;;;;;;27.97;40.77;101894.47;5115382;28;20433;-78
2022/07/24 06:03:29;;;;;;;5.68;3.50;;;;;;;27.17;41.79;101896.97;5096603;28;20020;-78
2022/07/24 06:05:55;;;;;;;6.63;3.53;;;;;;;28.70;38.88;101898.50;5097176;28;20498;-77
2022/07/24 06:08:20;;;;;;;4.05;3.00;;;;;;;29.37;38.25;101899.16;5096191;28;20038;-80
2022/07/24 06:10:46;;;;;;;6.30;2.72;;;;;;;28.89;37.92;101892.69;5096953;28;20012;-78
2022/07/24 06:13:11;;;;;;;5.47;3.15;;;;;;;29.24;37.35;101891.97;5096635;28;20028;-78
2022/07/24 06:15:36;;;;;;;7.65;3.22;;;;;;;28.56;38.70;101890.50;5096375;28;20059;-78
2022/07/24 06:18:02;;;;;;;5.72;2.80;;;;;;;30.35;35.88;101887.34;5115281;28;20023;-77
2022/07/24 06:20:27;;;;;;;3.60;2.70;;;;;;;30.10;36.12;101878.47;5096538;28;20057;-77
2022/07/24 06:22:53;;;;;;;5.07;2.25;;;;;;;28.79;38.14;101883.53;5096007;28;20027;-78
2022/07/24 06:25:19;;;;;;;4.13;2.67;;;;;;;30.41;35.59;101886.88;5115032;28;20028;-78
2022/07/24 06:27:48;;;;;;;4.72;2.30;;;;;;;30.14;35.59;101885.34;5096678;28;20023;-78
2022/07/24 06:30:14;;;;;;;5.80;2.22;;;;;;;28.19;39.09;101888.53;5095707;28;20038;-78
2022/07/24 06:32:39;;;;;;;4.40;2.63;;;;;;;29.59;37.77;101891.22;5114990;28;20054;-77
2022/07/24 06:35:05;;;;;;;2.83;2.55;;;;;;;28.75;38.22;101900.84;5096744;28;20530;-78
2022/07/24 06:37:31;;;;;;;4.63;2.85;;;;;;;29.71;37.08;101904.75;5095823;28;20046;-78
2022/07/24 06:39:56;;;;;;;3.45;2.10;;;;;;;31.04;34.50;101905.38;5114637;28;20024;-78
2022/07/24 06:42:21;;;;;;;3.97;2.05;;;;;;;32.40;32.47;101888.72;5092840;28;20048;-78
2022/07/24 06:44:46;;;;;;;2.70;1.88;;;;;;;33.77;30.12;101886.47;5092998;28;20063;-79
2022/07/24 06:47:12;;;;;;;3.13;1.52;;;;;;;34.84;27.46;101893.56;5092912;28;20028;-78
2022/07/24 06:49:37;;;;;;;3.00;1.90;;;;;;;37.71;24.74;101884.06;5093114;28;20023;-78
2022/07/24 06:52:03;;;;;;;5.60;1.92;;;;;;;34.77;27.36;101895.16;5092318;28;20057;-79
2022/07/24 06:54:28;;;;;;;3.53;1.60;;;;;;;33.62;28.72;101899.56;5093018;28;20499;-78
2022/07/24 06:56:53;;;;;;;2.50;1.80;;;;;;;33.07;30.27;101894.59;5093925;28;20407;-78
2022/07/24 06:59:20;;;;;;;2.58;1.88;;;;;;;32.93;31.14;101894.00;5093495;28;20037;-78
2022/07/24 07:01:45;;;;;;;3.22;2.20;;;;;;;32.32;31.04;101893.94;5092794;28;20023;-78
2022/07/24 07:04:11;;;;;;;2.85;1.77;;;;;;;32.47;31.15;101895.31;5093908;28;20532;-78
2022/07/24 07:06:36;;;;;;;2.85;2.15;;;;;;;30.93;32.65;101893.56;5092053;28;20026;-78
2022/07/24 07:09:02;;;;;;;5.45;2.00;;;;;;;32.16;31.42;101906.06;5093900;28;20062;-79
2022/07/24 07:11:27;;;;;;;3.28;1.75;;;;;;;35.75;27.63;101898.19;5092797;28;20032;-78
2022/07/24 07:13:52;;;;;;;5.40;1.88;;;;;;;34.86;27.70;101897.00;5092339;28;20062;-78
2022/07/24 07:16:18;;;;;;;3.10;1.77;;;;;;;35.75;25.60;101891.88;5092742;28;20150;-78
2022/07/24 07:18:43;;;;;;;2.38;1.67;;;;;;;35.53;27.30;101899.50;5092867;28;20020;-78
2022/07/24 07:21:08;;;;;;;2.42;1.70;;;;;;;35.20;27.97;101893.69;5093623;28;20042;-78
2022/07/24 07:23:34;;;;;;;2.22;1.38;;;;;;;35.11;27.47;101895.44;5093655;28;20446;-79
2022/07/24 07:25:59;;;;;;;1.92;1.60;;;;;;;35.46;26.91;101892.97;5091958;28;20140;-79
2022/07/24 07:28:25;;;;;;;4.60;1.77;;;;;;;34.18;28.62;101889.88;5092378;28;20024;-79
2022/07/24 07:30:50;;;;;;;1.95;1.75;;;;;;;36.09;26.06;101888.44;5092063;28;20024;-78
2022/07/24 07:33:16;;;;;;;2.00;1.52;;;;;;;35.52;26.86;101897.78;5091677;28;20024;-78
2022/07/24 07:35:41;;;;;;;3.58;1.60;;;;;;;35.03;26.58;101897.22;5092289;28;20110;-78
2022/07/24 07:38:06;;;;;;;2.67;1.70;;;;;;;36.52;25.70;101894.91;5093184;28;20032;-78
2022/07/24 07:40:32;;;;;;;1.75;1.60;;;;;;;37.12;24.59;101893.97;5090612;28;20069;-78
2022/07/24 07:42:57;;;;;;;1.58;1.33;;;;;;;35.16;26.35;101897.72;5104716;28;20051;-78
2022/07/24 07:45:23;;;;;;;3.42;1.73;;;;;;;36.81;25.50;101899.16;5095288;28;20106;-78
2022/07/24 07:47:48;;;;;;;2.90;1.40;;;;;;;37.08;24.21;101906.22;5113024;28;20482;-79
2022/07/24 07:50:14;;;;;;;1.50;1.30;;;;;;;37.32;24.46;101901.91;5095438;28;20019;-79
2022/07/24 07:52:40;;;;;;;2.97;1.63;;;;;;;39.33;22.92;101899.38;5095039;28;20457;-79
2022/07/24 07:55:06;;;;;;;3.05;1.63;;;;;;;38.91;21.78;101902.50;5094938;28;20429;-80
2022/07/24 07:57:31;;;;;;;2.55;1.48;;;;;;;37.66;23.25;101895.47;5095283;28;20413;-79
2022/07/24 07:59:56;;;;;;;2.70;1.52;;;;;;;34.93;27.09;101898.13;5095120;28;20026;-79
2022/07/24 08:02:22;;;;;;;1.48;1.38;;;;;;;32.83;29.56;101890.38;5094272;28;20118;-78
2022/07/24 08:04:47;;;;;;;3.63;1.73;;;;;;;34.06;28.26;101882.91;5095034;28;20027;-79
2022/07/24 08:07:13;;;;;;;4.20;2.17;;;;;;;34.22;27.82;101877.72;5095249;28;20467;-79
2022/07/24 08:09:38;;;;;;;4.53;1.83;;;;;;;35.61;25.98;101880.56;5112513;28;20028;-80
2022/07/24 08:12:04;;;;;;;7.25;1.83;;;;;;;36.87;24.33;101876.69;5095309;28;20032;-78
2022/07/24 08:14:30;;;;;;;3.88;2.28;;;;;;;35.51;26.38;101882.50;5094630;28;20030;-78
2022/07/24 08:16:55;;;;;;;3.15;2.03;;;;;;;37.24;23.64;101880.91;5112335;28;20024;-79
2022/07/24 08:19:21;;;;;;;2.70;1.60;;;;;;;37.98;23.12;101869.25;5094872;28;20115;-79
2022/07/24 08:21:46;;;;;;;1.65;1.42;;;;;;;38.45;21.99;101868.50;5113051;28;20533;-78
2022/07/24 08:24:12;;;;;;;4.13;1.75;;;;;;;39.32;22.75;101873.09;5112161;28;20032;-79
2022/07/24 08:26:38;;;;;;;2.47;1.52;;;;;;;39.21;22.42;101865.28;5094866;28;20077;-79
2022/07/24 08:29:03;;;;;;;2.28;2.08;;;;;;;41.22;20.74;101873.88;5112189;28;20028;-80
2022/07/24 08:31:29;;;;;;;2.65;1.67;;;;;;;41.37;19.76;101873.81;5094408;28;20467;-79
2022/07/24 08:33:54;;;;;;;4.47;1.90;;;;;;;36.90;24.98;101876.38;5094552;28;20066;-78
2022/07/24 08:36:19;;;;;;;3.42;1.63;;;;;;;39.67;21.58;101869.94;5093812;28;20512;-78
2022/07/24 08:38:45;;;;;;;4.25;1.63;;;;;;;39.57;22.41;101874.78;5094108;28;20467;-78
2022/07/24 08:41:12;;;;;;;2.47;1.60;;;;;;;40.65;20.54;101862.63;5112680;28;20019;-78
2022/07/24 08:43:38;;;;;;;2.30;1.50;;;;;;;41.96;19.58;101874.59;5111655;28;20055;-78
2022/07/24 08:46:05;;;;;;;2.13;1.55;;;;;;;38.34;22.05;101869.72;5112377;28;20031;-78
2022/07/24 08:48:30;;;;;;;2.45;1.45;;;;;;;36.66;24.11;101868.94;5094525;28;20019;-79
2022/07/24 08:50:58;;;;;;;2.30;1.58;;;;;;;40.10;20.80;101872.16;5093325;28;20110;-78
2022/07/24 08:53:23;;;;;;;3.53;1.80;;;;;;;38.96;22.31;101857.22;5096528;28;20024;-78
2022/07/24 08:55:49;;;;;;;3.20;1.77;;;;;;;37.68;22.60;101864.28;5098388;28;20947;-78
2022/07/24 08:58:15;;;;;;;1.70;1.50;;;;;;;35.89;24.80;101856.00;5097857;28;20068;-78
2022/07/24 09:00:41;;;;;;;3.88;2.03;;;;;;;37.35;23.08;101857.97;5116223;28;20073;-78
2022/07/24 09:03:07;;;;;;;3.80;1.65;;;;;;;35.33;26.33;101869.72;5098311;28;20031;-78
2022/07/24 09:05:34;;;;;;;1.42;1.33;;;;;;;40.22;21.31;101862.44;5115738;28;20030;-78
2022/07/24 09:08:14;;;;;;;2.00;1.80;;;;;;;39.14;21.84;101858.81;5116529;28;20080;-78
2022/07/24 09:10:40;;;;;;;2.05;1.63;;;;;;;39.87;20.46;101864.78;5116425;28;20025;-78
2022/07/24 09:13:14;;;;;;;2.70;1.60;;;;;;;36.51;23.97;101855.06;5097657;28;20107;-78
2022/07/24 09:15:47;;;;;;;2.85;1.75;;;;;;;35.93;25.74;101851.97;5116014;28;20065;-78
2022/07/24 09:18:32;;;;;;;2.83;1.67;;;;;;;37.42;23.53;101863.59;5097618;28;20024;-78
2022/07/24 09:21:10;;;;;;;2.65;1.90;;;;;;;36.38;24.95;101852.78;5097814;28;20024;-78
2022/07/24 09:23:40;;;;;;;1.55;1.45;;;;;;;38.84;22.66;101862.25;5116214;28;20081;-78
2022/07/24 09:26:05;;;;;;;2.60;1.70;;;;;;;39.98;21.17;101855.28;5115194;28;20130;-78
2022/07/24 09:28:52;;;;;;;1.67;1.50;;;;;;;39.59;21.44;101865.34;5097729;28;20102;-78
2022/07/24 09:31:18;;;;;;;2.25;1.73;;;;;;;39.94;21.17;101846.63;5097762;28;20050;-78
2022/07/24 09:33:43;;;;;;;1.95;1.52;;;;;;;41.04;19.83;101850.50;5115301;28;20475;-78
2022/07/24 09:36:17;;;;;;;2.25;1.88;;;;;;;37.67;22.87;101857.16;5097482;28;20468;-76
2022/07/24 09:38:51;;;;;;;3.00;1.73;;;;;;;39.09;22.29;101850.31;5097532;28;20038;-78
2022/07/24 09:41:24;;;;;;;2.40;1.80;;;;;;;38.96;22.22;101846.28;5096932;28;20030;-79
2022/07/24 09:44:03;;;;;;;3.35;1.45;;;;;;;39.44;21.70;101859.00;5116078;28;20047;-78
2022/07/24 09:46:29;;;;;;;2.13;1.70;;;;;;;37.95;23.37;101854.09;5096569;28;20045;-78
2022/07/24 09:48:59;;;;;;;1.70;1.30;;;;;;;37.14;24.74;101855.69;5097880;28;20020;-78
2022/07/24 09:51:26;;;;;;;6.88;1.65;;;;;;;37.65;24.19;101853.72;5115401;28;20433;-78
2022/07/24 09:53:55;;;;;;;2.60;1.83;;;;;;;38.92;22.25;101850.41;5096641;28;20027;-79
2022/07/24 09:56:21;;;;;;;2.55;1.63;;;;;;;37.36;24.11;101851.50;5097237;28;20468;-79
2022/07/24 09:58:46;;;;;;;2.85;1.50;;;;;;;40.01;21.23;101833.88;5097262;28;20030;-78
2022/07/24 10:01:14;;;;;;;3.20;1.50;;;;;;;39.65;21.75;101845.53;5096372;28;20110;-78
2022/07/24 10:03:41;;;;;;;5.75;1.60;;;;;;;37.50;23.50;101844.53;5096662;28;20150;-78
2022/07/24 10:06:10;;;;;;;1.48;1.38;;;;;;;38.53;22.38;101841.16;5097169;28;20357;-79
2022/07/24 10:08:38;;;;;;;4.50;1.50;;;;;;;38.37;22.90;101840.38;5096725;28;20038;-78
2022/07/24 10:11:04;;;;;;;2.63;1.40;;;;;;;38.97;22.24;101842.53;5097040;28;20039;-78
2022/07/24 10:13:30;;;;;;;1.98;1.50;;;;;;;39.70;21.77;101834.03;5115322;28;20039;-78
2022/07/24 10:16:11;;;;;;;3.42;1.42;;;;;;;39.91;21.33;101835.19;5096262;28;20011;-79
2022/07/24 10:18:50;;;;;;;2.00;1.60;;;;;;;40.61;21.02;101839.41;5097257;28;20031;-78
2022/07/24 10:21:19;;;;;;;1.55;1.45;;;;;;;37.97;23.37;101829.34;5096958;28;20027;-78
2022/07/24 10:24:03;;;;;;;1.60;1.50;;;;;;;38.99;21.93;101834.13;5095735;28;20019;-78
2022/07/24 10:26:37;;;;;;;3.25;1.90;;;;;;;40.28;21.99;101814.28;5115188;28;20042;-78
2022/07/24 10:29:14;;;;;;;2.47;1.52;;;;;;;38.89;22.68;101823.44;5096319;28;20491;-78
2022/07/24 10:31:41;;;;;;;1.50;1.40;;;;;;;38.31;22.68;101820.94;5114962;28;20034;-78
2022/07/24 10:34:16;;;;;;;3.08;2.03;;;;;;;38.77;22.38;101820.25;5114620;28;20509;-78
2022/07/24 10:36:51;;;;;;;1.50;1.40;;;;;;;38.95;22.55;101809.09;5096355;28;20023;-78
2022/07/24 10:39:31;;;;;;;5.60;1.52;;;;;;;40.19;21.48;101813.56;5096775;28;20028;-78
2022/07/24 10:42:06;;;;;;;2.28;1.63;;;;;;;38.40;22.86;101810.00;5114827;28;20089;-78
2022/07/24 10:44:32;;;;;;;2.13;1.65;;;;;;;38.05;23.11;101812.13;5096342;28;20020;-78
2022/07/24 10:47:13;;;;;;;1.52;1.38;;;;;;;38.25;22.51;101808.00;5096111;28;20066;-78
2022/07/24 10:49:43;;;;;;;2.65;1.50;;;;;;;39.05;22.00;101810.72;5096100;28;20041;-78
2022/07/24 10:52:28;;;;;;;4.43;1.83;;;;;;;37.33;23.35;101806.34;5096583;28;20034;-78
2022/07/24 10:55:23;;;;;;;2.30;1.40;;;;;;;38.78;22.75;101804.72;5096492;28;20380;-79
2022/07/24 10:58:15;;;;;;;2.85;1.88;;;;;;;38.28;23.05;101810.38;5095410;28;20024;-78
2022/07/24 11:00:49;;;;;;;1.95;1.73;;;;;;;38.69;21.75;101807.50;5110314;28;20063;-78
2022/07/24 11:03:23;;;;;;;2.38;1.80;;;;;;;39.12;21.73;101803.50;5114389;28;20035;-78
2022/07/24 11:06:11;;;;;;;5.53;1.60;;;;;;;37.75;22.40;101800.88;5095521;28;20019;-77
2022/07/24 11:08:51;;;;;;;2.03;1.80;;;;;;;39.36;21.51;101800.63;5095864;28;20023;-79
2022/07/24 11:11:21;;;;;;;3.28;1.85;;;;;;;38.43;22.83;101799.59;5113995;28;20019;-78
2022/07/24 11:14:01;;;;;;;2.90;1.67;;;;;;;38.88;22.10;101799.88;5113788;28;20035;-78
2022/07/24 11:16:29;;;;;;;4.55;1.80;;;;;;;36.99;24.20;101795.53;5113116;28;20064;-77
2022/07/24 11:18:54;;;;;;;3.08;1.70;;;;;;;38.25;22.96;101794.38;5113337;28;20031;-78